Phillipston, Massachusetts
Current Conditions -  °F | °C
As of 9:52 AM on Thursday 23 Oct 2014 (Local Time) from KORE Reporting Station
Light Rain Light Rain  
Wind Chill: 44°   Ceiling: 4100
Heat Index: 49°   Visibility: 9mi
Dew Point: 47°   Wind: 14mph
Humidity: 93%   Direction: 350°N
Pressure: 29.72"   Gusts: NA
Location:  42.617°N, 72.1846°W
Report Text: KORE 231352Z AUTO 35012KT 9SM -RA FEW027 BKN041 OVC050 09/08 A2972 RMK AO2 SLP068 P0026 T00940083
Loading
Personal Weather Stations






























Interactive Weather Map
Tropical Storm Tracking
New forecast layout! Learn more

10-Day Weather Forecast

Advertisements
Track Severe Weather on mobile